Suwanee, Florida
Current Conditions -  °F | °C
As of 3:53 AM on Wednesday 26 Nov 2014 (Local Time) from KGNV Reporting Station
Light Rain Light Rain  
Wind Chill: 50°   Ceiling: 900
Heat Index: 50°   Visibility: 5mi
Dew Point: 49°   Wind: 16mph
Humidity: 96%   Direction: 310°NW
Pressure: 29.96"   Gusts: 28mph
Location:  29.6251°N, 82.7909°W
Report Text: KGNV 260853Z AUTO 31014G24KT 5SM -RA BR BKN009 OVC017 10/09 A2996 RMK AO2 CIG 005V012 SLP144 P0002 60006 T01000094 53032
Loading
Personal Weather Stations






























Interactive Weather Map New forecast layout! Learn more

10-Day Weather Forecast

Advertisements
Track Severe Weather on mobile